createdAt,value
2022-12-05T00:01:18.324Z,2.15
2022-12-05T00:03:46.669Z,2.15
2022-12-05T00:06:14.184Z,1.80
2022-12-05T00:08:41.743Z,1.67
2022-12-05T00:11:14.263Z,1.98
2022-12-05T00:13:44.086Z,1.90
2022-12-05T00:16:13.738Z,2.22
2022-12-05T00:18:41.402Z,1.70
2022-12-05T00:21:14.890Z,2.40
2022-12-05T00:23:42.547Z,2.33
2022-12-05T00:26:10.774Z,1.70
2022-12-05T00:28:38.524Z,1.17
2022-12-05T00:31:09.917Z,1.77
2022-12-05T00:33:38.153Z,2.10
2022-12-05T00:36:08.070Z,2.05
2022-12-05T00:38:35.740Z,2.17
2022-12-05T00:41:05.099Z,2.25
2022-12-05T00:43:33.688Z,1.90
2022-12-05T00:46:02.895Z,2.40
2022-12-05T00:48:32.224Z,1.65
2022-12-05T00:51:04.132Z,2.42
2022-12-05T00:53:35.265Z,2.33
2022-12-05T00:56:06.583Z,2.08
2022-12-05T00:58:35.067Z,2.37
2022-12-05T01:01:07.642Z,2.67
2022-12-05T01:03:36.971Z,2.58
2022-12-05T01:06:06.038Z,2.25
2022-12-05T01:08:34.537Z,2.60
2022-12-05T01:11:02.547Z,2.57
2022-12-05T01:13:30.979Z,2.60
2022-12-05T01:15:59.338Z,2.60
2022-12-05T01:18:28.036Z,3.05
2022-12-05T01:20:57.760Z,2.80
2022-12-05T01:23:25.485Z,2.43
2022-12-05T01:25:53.674Z,2.08
2022-12-05T01:28:21.661Z,2.22
2022-12-05T01:30:50.920Z,1.65
2022-12-05T01:33:19.061Z,1.30
2022-12-05T01:35:46.673Z,1.40
2022-12-05T01:38:15.939Z,1.65
2022-12-05T01:40:43.754Z,1.55
2022-12-05T01:43:15.830Z,1.80
2022-12-05T01:45:45.237Z,1.55
2022-12-05T01:48:17.412Z,1.57
2022-12-05T01:50:45.567Z,1.67
2022-12-05T01:53:14.926Z,1.77
2022-12-05T01:55:42.670Z,1.60
2022-12-05T01:58:12.008Z,1.60
2022-12-05T02:00:40.439Z,1.70
2022-12-05T02:03:10.705Z,1.73
2022-12-05T02:05:38.694Z,1.58
2022-12-05T02:08:09.284Z,1.88
2022-12-05T02:10:41.593Z,2.00
2022-12-05T02:13:23.495Z,2.20
2022-12-05T02:15:57.921Z,2.22
2022-12-05T02:18:35.552Z,1.98
2022-12-05T02:21:18.674Z,1.83
2022-12-05T02:24:05.154Z,1.92
2022-12-05T02:26:56.963Z,1.87
2022-12-05T02:29:54.131Z,1.33
2022-12-05T02:32:33.622Z,1.42
2022-12-05T02:35:11.457Z,1.15
2022-12-05T02:37:47.153Z,1.40
2022-12-05T02:40:22.506Z,1.37
2022-12-05T02:42:55.463Z,1.38
2022-12-05T02:45:27.452Z,2.20
2022-12-05T02:47:55.835Z,3.35
2022-12-05T02:50:26.961Z,2.75
2022-12-05T02:52:59.305Z,2.67
2022-12-05T02:55:29.421Z,1.88
2022-12-05T02:58:01.893Z,1.80
2022-12-05T03:00:30.691Z,1.80
2022-12-05T03:03:00.863Z,2.15
2022-12-05T03:05:38.586Z,1.40
2022-12-05T03:08:09.089Z,1.30
2022-12-05T03:10:41.321Z,1.30
2022-12-05T03:13:15.595Z,1.02
2022-12-05T03:15:48.464Z,1.20
2022-12-05T03:18:19.928Z,0.90
2022-12-05T03:20:51.973Z,1.05
2022-12-05T03:23:24.004Z,1.42
2022-12-05T03:25:57.703Z,1.15
2022-12-05T03:28:33.445Z,1.38
2022-12-05T03:31:09.405Z,1.30
2022-12-05T03:33:43.349Z,1.10
2022-12-05T03:36:17.800Z,1.13
2022-12-05T03:38:50.666Z,1.30
2022-12-05T03:41:26.045Z,1.20
2022-12-05T03:43:58.796Z,1.20
2022-12-05T03:46:31.505Z,1.20
2022-12-05T03:49:04.503Z,1.15
2022-12-05T03:51:36.851Z,1.30
2022-12-05T03:54:09.443Z,0.90
2022-12-05T03:56:44.073Z,1.20
2022-12-05T03:59:17.352Z,1.27
2022-12-05T04:01:49.760Z,1.27
2022-12-05T04:04:22.518Z,1.30
2022-12-05T04:06:54.512Z,1.05
2022-12-05T04:09:25.970Z,1.13
2022-12-05T04:11:59.053Z,1.30
2022-12-05T04:14:31.376Z,1.35
2022-12-05T04:17:04.769Z,1.60
2022-12-05T04:19:51.360Z,1.10
2022-12-05T04:22:20.020Z,1.40
2022-12-05T04:25:06.690Z,1.70
2022-12-05T04:27:41.648Z,1.50
2022-12-05T04:30:11.453Z,1.40
2022-12-05T04:32:45.917Z,1.42
2022-12-05T04:35:18.411Z,1.37
2022-12-05T04:37:49.067Z,1.10
2022-12-05T04:40:21.571Z,1.50
2022-12-05T04:42:51.924Z,1.23
2022-12-05T04:45:21.390Z,1.10
2022-12-05T04:47:54.580Z,1.10
2022-12-05T04:50:25.124Z,1.20
2022-12-05T04:52:56.280Z,1.25
2022-12-05T04:55:27.928Z,1.15
2022-12-05T04:58:05.537Z,1.00
2022-12-05T05:00:38.969Z,1.00
2022-12-05T05:03:13.627Z,0.90
2022-12-05T05:05:42.141Z,1.05
2022-12-05T05:08:17.932Z,0.95
2022-12-05T05:10:53.071Z,0.70
2022-12-05T05:13:20.551Z,0.70
2022-12-05T05:15:48.165Z,0.98
2022-12-05T05:18:16.978Z,0.70
2022-12-05T05:20:44.441Z,1.10
2022-12-05T05:23:11.923Z,0.70
2022-12-05T05:25:39.410Z,0.60
2022-12-05T05:28:07.051Z,0.90
2022-12-05T05:30:34.536Z,1.02
2022-12-05T05:33:02.039Z,0.90
2022-12-05T05:35:31.033Z,3.80
2022-12-05T05:37:58.739Z,3.60
2022-12-05T05:40:26.188Z,1.98
2022-12-05T05:42:53.653Z,2.63
2022-12-05T05:45:21.220Z,2.50
2022-12-05T05:47:49.909Z,1.05
2022-12-05T05:50:21.412Z,1.03
2022-12-05T05:52:50.972Z,1.45
2022-12-05T05:55:18.917Z,1.10
2022-12-05T05:57:46.489Z,1.10
2022-12-05T06:00:15.594Z,1.10
2022-12-05T06:02:43.219Z,1.20
2022-12-05T06:05:10.945Z,2.03
2022-12-05T06:07:38.418Z,4.82
2022-12-05T06:10:08.706Z,2.80
2022-12-05T06:12:36.171Z,1.30
2022-12-05T06:15:03.624Z,1.20
2022-12-05T06:17:31.505Z,1.10
2022-12-05T06:19:59.235Z,1.10
2022-12-05T06:22:26.890Z,2.13
2022-12-05T06:24:54.298Z,1.52
2022-12-05T06:27:23.071Z,2.40
2022-12-05T06:29:50.523Z,3.65
2022-12-05T06:32:17.957Z,1.95
2022-12-05T06:34:45.374Z,2.65
2022-12-05T06:37:12.986Z,1.25
2022-12-05T06:39:40.563Z,1.10
2022-12-05T06:42:08.015Z,1.00
2022-12-05T06:44:37.009Z,1.25
2022-12-05T06:47:04.575Z,1.20
2022-12-05T06:49:37.817Z,1.30
2022-12-05T06:52:05.835Z,1.40
2022-12-05T06:54:33.283Z,1.17
2022-12-05T06:57:00.729Z,1.70
2022-12-05T06:59:28.187Z,1.70
2022-12-05T07:01:56.031Z,1.15
2022-12-05T07:04:24.829Z,1.27
2022-12-05T07:06:54.085Z,1.27
2022-12-05T07:09:43.964Z,1.27
2022-12-05T07:12:11.732Z,1.17
2022-12-05T07:14:47.603Z,1.20
2022-12-05T07:17:17.564Z,1.50
2022-12-05T07:19:45.083Z,1.27
2022-12-05T07:22:15.993Z,1.80
2022-12-05T07:24:43.941Z,2.45
2022-12-05T07:27:11.572Z,1.85
2022-12-05T07:29:39.001Z,1.50
2022-12-05T07:32:07.256Z,1.27
2022-12-05T07:34:36.121Z,1.50
2022-12-05T07:37:03.610Z,1.88
2022-12-05T07:39:31.323Z,1.25
2022-12-05T07:41:58.738Z,1.17
2022-12-05T07:44:26.182Z,1.38
2022-12-05T07:46:54.006Z,1.38
2022-12-05T07:49:21.477Z,1.23
2022-12-05T07:51:50.285Z,0.98
2022-12-05T07:54:17.718Z,1.27
2022-12-05T07:56:47.995Z,1.20
2022-12-05T07:59:15.705Z,1.40
2022-12-05T08:01:43.266Z,1.30
2022-12-05T08:04:15.040Z,1.30
2022-12-05T08:06:43.146Z,1.27
2022-12-05T08:09:12.004Z,1.60
2022-12-05T08:11:39.463Z,1.48
2022-12-05T08:14:08.964Z,1.60
2022-12-05T08:16:36.528Z,1.40
2022-12-05T08:19:05.391Z,2.80
2022-12-05T08:21:33.842Z,3.70
2022-12-05T08:24:01.661Z,2.15
2022-12-05T08:26:31.980Z,1.85
2022-12-05T08:29:01.896Z,2.58
2022-12-05T08:31:32.399Z,1.83
2022-12-05T08:34:01.312Z,2.00
2022-12-05T08:36:30.206Z,1.90
2022-12-05T08:38:58.405Z,1.90
2022-12-05T08:41:28.603Z,1.75
2022-12-05T08:43:59.493Z,1.63
2022-12-05T08:46:26.998Z,1.67
2022-12-05T08:48:54.466Z,1.50
2022-12-05T08:51:22.028Z,1.90
2022-12-05T08:53:49.497Z,1.70
2022-12-05T08:56:18.903Z,1.90
2022-12-05T08:58:48.485Z,1.50
2022-12-05T09:01:19.309Z,1.15
2022-12-05T09:03:48.341Z,1.40
2022-12-05T09:06:17.575Z,1.80
2022-12-05T09:08:45.595Z,1.60
2022-12-05T09:11:15.501Z,1.73
2022-12-05T09:13:43.247Z,1.70
2022-12-05T09:16:12.786Z,1.45
2022-12-05T09:18:41.754Z,2.08
2022-12-05T09:21:10.400Z,2.10
2022-12-05T09:23:38.084Z,1.95
2022-12-05T09:26:06.988Z,2.60
2022-12-05T09:28:35.646Z,1.88
2022-12-05T09:31:06.288Z,1.77
2022-12-05T09:33:36.725Z,1.70
2022-12-05T09:36:06.505Z,1.90
2022-12-05T09:38:34.367Z,2.00
2022-12-05T09:41:11.765Z,1.90
2022-12-05T09:43:48.388Z,1.70
2022-12-05T09:46:24.309Z,2.00
2022-12-05T09:48:52.781Z,2.22
2022-12-05T09:51:22.355Z,1.70
2022-12-05T09:53:50.442Z,1.60
2022-12-05T09:56:26.344Z,1.50
2022-12-05T09:58:55.258Z,1.50
2022-12-05T10:01:30.556Z,1.60
2022-12-05T10:04:23.496Z,1.98
2022-12-05T10:07:02.005Z,1.73
2022-12-05T10:09:42.732Z,1.88
2022-12-05T10:12:21.029Z,1.60
2022-12-05T10:14:58.874Z,1.80
2022-12-05T10:17:32.591Z,1.65
2022-12-05T10:20:03.922Z,1.52
2022-12-05T10:22:41.220Z,1.58
2022-12-05T10:25:12.061Z,2.00
2022-12-05T10:27:43.725Z,2.10
2022-12-05T10:30:17.096Z,1.85
2022-12-05T10:32:52.472Z,2.60
2022-12-05T10:35:22.487Z,7.00
2022-12-05T10:37:53.994Z,11.17
2022-12-05T10:40:22.296Z,12.52
2022-12-05T10:42:50.614Z,5.97
2022-12-05T10:45:21.867Z,3.17
2022-12-05T10:47:50.730Z,2.38
2022-12-05T10:50:32.109Z,4.90
2022-12-05T10:53:03.655Z,2.88
2022-12-05T10:55:35.183Z,4.20
2022-12-05T10:58:17.594Z,2.40
2022-12-05T11:00:48.729Z,4.50
2022-12-05T11:03:26.089Z,4.33
2022-12-05T11:05:55.994Z,2.38
2022-12-05T11:08:55.997Z,2.58
2022-12-05T11:11:21.013Z,1.45
2022-12-05T11:13:54.805Z,1.38
2022-12-05T11:16:25.077Z,1.23
2022-12-05T11:18:53.188Z,1.90
2022-12-05T11:21:20.837Z,1.80
2022-12-05T11:23:50.054Z,1.58
2022-12-05T11:26:33.639Z,1.77
2022-12-05T11:29:01.118Z,3.40
2022-12-05T11:31:30.995Z,2.78
2022-12-05T11:34:06.676Z,1.92
2022-12-05T11:36:41.239Z,2.00
2022-12-05T11:39:12.933Z,1.80
2022-12-05T11:41:56.907Z,1.57
2022-12-05T11:44:40.283Z,1.60
2022-12-05T11:47:20.496Z,2.10
2022-12-05T11:50:09.801Z,1.83
2022-12-05T11:52:52.671Z,1.45
2022-12-05T11:55:25.852Z,1.30
2022-12-05T11:58:07.703Z,1.85
2022-12-05T12:00:44.777Z,2.20
2022-12-05T12:03:33.162Z,2.40
2022-12-05T12:06:14.181Z,4.28
2022-12-05T12:08:54.003Z,3.90
2022-12-05T12:11:30.663Z,3.33
2022-12-05T12:14:06.987Z,3.88
2022-12-05T12:16:43.495Z,4.82
2022-12-05T12:19:35.297Z,3.63
2022-12-05T12:22:19.326Z,3.20
2022-12-05T12:25:10.766Z,3.42
2022-12-05T12:27:53.155Z,2.88
2022-12-05T12:30:23.059Z,2.95
2022-12-05T12:33:02.556Z,2.85
2022-12-05T12:35:32.044Z,2.10
2022-12-05T12:38:22.866Z,2.28
2022-12-05T12:40:54.025Z,2.10
2022-12-05T12:43:54.266Z,2.30
2022-12-05T12:46:39.064Z,1.90
2022-12-05T12:49:20.196Z,4.53
2022-12-05T12:51:53.674Z,1.92
2022-12-05T12:55:02.345Z,3.95
2022-12-05T12:57:32.677Z,3.38
2022-12-05T13:00:14.034Z,6.60
2022-12-05T13:02:47.632Z,9.07
2022-12-05T13:05:24.563Z,2.90
2022-12-05T13:07:58.636Z,2.50
2022-12-05T13:10:30.592Z,3.10
2022-12-05T13:13:00.678Z,5.72
2022-12-05T13:15:36.000Z,5.50
2022-12-05T13:18:05.922Z,3.13
2022-12-05T13:20:36.469Z,2.97
2022-12-05T13:23:08.353Z,3.38
2022-12-05T13:25:40.183Z,4.10
2022-12-05T13:28:25.709Z,3.30
2022-12-05T13:31:06.262Z,2.88
2022-12-05T13:33:38.019Z,3.28
2022-12-05T13:36:26.640Z,2.97
2022-12-05T13:39:17.036Z,3.33
2022-12-05T13:42:04.288Z,4.63
2022-12-05T13:44:37.613Z,3.22
2022-12-05T13:47:10.054Z,3.80
2022-12-05T13:49:45.925Z,4.13
2022-12-05T13:52:18.606Z,4.28
2022-12-05T13:54:53.264Z,3.40
2022-12-05T13:57:46.889Z,4.40
2022-12-05T14:00:33.389Z,4.03
2022-12-05T14:03:04.914Z,6.20
2022-12-05T14:05:50.784Z,4.30
2022-12-05T14:08:53.007Z,33.03
2022-12-05T14:11:21.065Z,12.45
2022-12-05T14:13:49.354Z,8.23
2022-12-05T14:16:47.806Z,5.88
2022-12-05T14:19:38.946Z,4.20
2022-12-05T14:22:34.323Z,4.00
2022-12-05T14:25:07.070Z,5.47
2022-12-05T14:27:47.853Z,4.75
2022-12-05T14:30:23.690Z,4.68
2022-12-05T14:32:53.649Z,4.50
2022-12-05T14:35:28.501Z,3.93
2022-12-05T14:37:59.044Z,6.60
2022-12-05T14:40:33.180Z,4.32
2022-12-05T14:43:03.585Z,3.80
2022-12-05T14:45:35.505Z,5.95
2022-12-05T14:48:04.922Z,5.30
2022-12-05T14:50:41.581Z,4.70
2022-12-05T14:53:20.159Z,4.10
2022-12-05T14:55:49.389Z,4.28
2022-12-05T14:58:20.278Z,4.80
2022-12-05T15:00:56.294Z,7.83
2022-12-05T15:03:30.845Z,6.97
2022-12-05T15:06:03.705Z,7.30
2022-12-05T15:08:36.141Z,7.95
2022-12-05T15:11:04.046Z,6.50
2022-12-05T15:13:33.456Z,7.60
2022-12-05T15:16:08.087Z,5.22
2022-12-05T15:18:40.420Z,8.10
2022-12-05T15:21:14.945Z,6.43
2022-12-05T15:23:44.299Z,3.47
2022-12-05T15:26:45.554Z,3.93
2022-12-05T15:29:09.121Z,4.30
2022-12-05T15:31:40.664Z,3.95
2022-12-05T15:34:14.965Z,3.38
2022-12-05T15:36:48.693Z,3.65
2022-12-05T15:39:23.471Z,3.50
2022-12-05T15:41:52.550Z,3.13
2022-12-05T15:44:25.408Z,3.55
2022-12-05T15:46:57.036Z,3.95
2022-12-05T15:49:26.867Z,3.40
2022-12-05T15:51:59.493Z,3.37
2022-12-05T15:54:32.647Z,3.35
2022-12-05T15:57:05.842Z,3.40
2022-12-05T15:59:39.914Z,3.03
2022-12-05T16:02:16.457Z,3.40
2022-12-05T16:04:48.630Z,4.40
2022-12-05T16:07:18.275Z,3.88
2022-12-05T16:09:47.485Z,5.05
2022-12-05T16:12:26.040Z,4.25
2022-12-05T16:15:01.010Z,4.10
2022-12-05T16:17:31.106Z,5.77
2022-12-05T16:20:12.265Z,5.75
2022-12-05T16:22:46.189Z,5.90
2022-12-05T16:25:16.242Z,4.63
2022-12-05T16:27:46.186Z,6.35
2022-12-05T16:30:23.903Z,5.00
2022-12-05T16:33:00.553Z,7.35
2022-12-05T16:35:31.291Z,6.68
2022-12-05T16:38:10.901Z,4.13
2022-12-05T16:40:39.289Z,5.93
2022-12-05T16:43:18.076Z,5.50
2022-12-05T16:45:46.784Z,10.50
2022-12-05T16:48:21.090Z,7.40
2022-12-05T16:50:48.561Z,11.18
2022-12-05T16:53:23.585Z,6.80
2022-12-05T16:55:51.075Z,5.90
2022-12-05T16:58:23.996Z,6.43
2022-12-05T17:00:52.283Z,6.57
2022-12-05T17:03:34.387Z,7.25
2022-12-05T17:06:02.704Z,6.78
2022-12-05T17:08:31.529Z,4.07
2022-12-05T17:11:01.670Z,3.90
2022-12-05T17:13:29.295Z,4.00
2022-12-05T17:15:56.778Z,4.25
2022-12-05T17:18:30.917Z,3.65
2022-12-05T17:21:02.254Z,3.37
2022-12-05T17:23:31.052Z,4.40
2022-12-05T17:26:00.271Z,4.60
2022-12-05T17:28:27.686Z,4.18
2022-12-05T17:30:55.122Z,4.07
2022-12-05T17:33:22.522Z,4.23
2022-12-05T17:35:51.816Z,3.95
2022-12-05T17:38:19.237Z,4.03
2022-12-05T17:40:48.234Z,4.40
2022-12-05T17:43:21.389Z,3.85
2022-12-05T17:45:49.223Z,4.30
2022-12-05T17:48:16.991Z,4.57
2022-12-05T17:50:47.847Z,4.75
2022-12-05T17:53:17.961Z,6.82
2022-12-05T17:55:48.479Z,6.88
2022-12-05T17:58:17.962Z,3.93
2022-12-05T18:00:47.280Z,4.32
2022-12-05T18:03:19.239Z,4.55
2022-12-05T18:05:48.112Z,4.53
2022-12-05T18:08:17.053Z,4.60
2022-12-05T18:10:46.906Z,4.40
2022-12-05T18:13:15.032Z,3.72
2022-12-05T18:15:44.334Z,4.35
2022-12-05T18:18:15.802Z,4.35
2022-12-05T18:20:43.453Z,4.80
2022-12-05T18:23:11.308Z,3.93
2022-12-05T18:25:39.163Z,4.05
2022-12-05T18:28:06.776Z,3.10
2022-12-05T18:30:34.781Z,3.20
2022-12-05T18:33:03.681Z,3.33
2022-12-05T18:35:43.313Z,2.87
2022-12-05T18:38:11.671Z,2.60
2022-12-05T18:40:39.643Z,3.15
2022-12-05T18:43:07.290Z,2.53
2022-12-05T18:45:34.958Z,3.10
2022-12-05T18:48:23.377Z,3.07
2022-12-05T18:50:52.032Z,3.22
2022-12-05T18:53:19.875Z,2.90
2022-12-05T18:58:35.309Z,2.40
2022-12-05T19:01:08.244Z,2.50
2022-12-05T19:03:37.980Z,2.47
2022-12-05T19:06:12.859Z,2.30
2022-12-05T19:08:40.591Z,2.60
2022-12-05T19:11:08.913Z,2.50
2022-12-05T19:13:36.573Z,2.70
2022-12-05T19:16:04.488Z,1.85
2022-12-05T19:18:32.418Z,2.42
2022-12-05T19:21:01.945Z,2.17
2022-12-05T19:23:29.704Z,1.83
2022-12-05T19:26:00.596Z,2.07
2022-12-05T19:28:29.006Z,1.85
2022-12-05T19:31:00.627Z,2.10
2022-12-05T19:33:31.921Z,1.90
2022-12-05T19:36:05.307Z,1.98
2022-12-05T19:38:34.914Z,1.73
2022-12-05T19:41:02.834Z,1.58
2022-12-05T19:43:31.263Z,1.90
2022-12-05T19:45:59.241Z,1.67
2022-12-05T19:48:30.142Z,1.33
2022-12-05T19:50:59.525Z,1.50
2022-12-05T19:53:30.561Z,1.73
2022-12-05T19:56:02.180Z,1.50
2022-12-05T19:58:31.635Z,1.45
2022-12-05T20:01:07.970Z,1.33
2022-12-05T20:03:35.882Z,1.37
2022-12-05T20:06:04.607Z,1.40
2022-12-05T20:08:38.788Z,1.77
2022-12-05T20:11:07.779Z,1.30
2022-12-05T20:13:51.493Z,1.30
2022-12-05T20:16:21.466Z,1.40
2022-12-05T20:18:50.327Z,1.25
2022-12-05T20:21:20.291Z,1.67
2022-12-05T20:23:49.920Z,1.20
2022-12-05T20:26:20.017Z,1.38
2022-12-05T20:28:48.607Z,1.27
2022-12-05T20:31:21.697Z,1.30
2022-12-05T20:33:50.800Z,1.60
2022-12-05T20:36:22.424Z,1.08
2022-12-05T20:38:56.193Z,1.38
2022-12-05T20:41:24.361Z,1.60
2022-12-05T20:43:55.156Z,1.65
2022-12-05T20:46:23.625Z,1.48
2022-12-05T20:48:53.012Z,1.70
2022-12-05T20:51:22.296Z,1.35
2022-12-05T20:53:51.827Z,1.40
2022-12-05T20:56:21.313Z,1.60
2022-12-05T20:58:50.548Z,1.30
2022-12-05T21:01:20.346Z,1.40
2022-12-05T21:03:50.035Z,1.50
2022-12-05T21:06:19.475Z,1.70
2022-12-05T21:08:47.151Z,1.85
2022-12-05T21:11:16.388Z,1.20
2022-12-05T21:13:44.245Z,0.77
2022-12-05T21:16:14.221Z,0.95
2022-12-05T21:18:44.846Z,1.20
2022-12-05T21:21:15.458Z,1.50
2022-12-05T21:23:43.252Z,1.60
2022-12-05T21:26:13.841Z,1.35
2022-12-05T21:28:44.036Z,1.42
2022-12-05T21:31:14.387Z,2.03
2022-12-05T21:33:46.959Z,1.95
2022-12-05T21:36:14.683Z,2.40
2022-12-05T21:38:42.269Z,2.20
2022-12-05T21:41:10.105Z,2.08
2022-12-05T21:43:42.349Z,2.27
2022-12-05T21:46:10.229Z,2.20
2022-12-05T21:48:37.911Z,2.40
2022-12-05T21:51:07.234Z,2.17
2022-12-05T21:53:35.281Z,2.08
2022-12-05T21:56:06.728Z,2.17
2022-12-05T21:58:38.074Z,2.20
2022-12-05T22:01:10.306Z,2.17
2022-12-05T22:03:37.797Z,1.85
2022-12-05T22:06:07.326Z,1.70
2022-12-05T22:08:35.643Z,1.73
2022-12-05T22:11:07.107Z,1.90
2022-12-05T22:13:34.887Z,1.70
2022-12-05T22:16:03.375Z,1.80
2022-12-05T22:18:32.529Z,2.00
2022-12-05T22:21:01.508Z,1.90
2022-12-05T22:23:29.236Z,2.00
2022-12-05T22:25:58.296Z,1.83
2022-12-05T22:28:25.776Z,1.73
2022-12-05T22:30:54.880Z,1.95
2022-12-05T22:33:22.484Z,1.80
2022-12-05T22:35:56.574Z,2.40
2022-12-05T22:38:24.183Z,1.90
2022-12-05T22:40:55.115Z,2.10
2022-12-05T22:43:22.991Z,1.70
2022-12-05T22:45:50.428Z,1.60
2022-12-05T22:48:18.212Z,1.83
2022-12-05T22:50:49.773Z,2.05
2022-12-05T22:53:19.689Z,1.38
2022-12-05T22:55:47.359Z,1.60
2022-12-05T22:58:14.868Z,2.03
2022-12-05T23:00:42.656Z,1.73
2022-12-05T23:03:10.658Z,1.45
2022-12-05T23:05:40.787Z,1.27
2022-12-05T23:08:11.042Z,1.50
2022-12-05T23:10:40.578Z,1.83
2022-12-05T23:13:08.631Z,2.33
2022-12-05T23:15:38.832Z,2.25
2022-12-05T23:18:06.655Z,1.15
2022-12-05T23:20:34.521Z,1.77
2022-12-05T23:23:02.100Z,1.67
2022-12-05T23:25:29.701Z,2.45
2022-12-05T23:27:58.738Z,2.70
2022-12-05T23:30:26.382Z,2.30
2022-12-05T23:32:54.161Z,2.58
2022-12-05T23:35:21.762Z,2.43
2022-12-05T23:37:49.444Z,2.13
2022-12-05T23:40:17.589Z,2.80
2022-12-05T23:42:45.215Z,2.58
2022-12-05T23:45:14.227Z,2.63
2022-12-05T23:47:41.852Z,2.30
2022-12-05T23:50:10.134Z,2.58
2022-12-05T23:52:38.348Z,2.38
2022-12-05T23:55:06.658Z,2.35
2022-12-05T23:57:34.327Z,2.25
